SBPA

Details ICAO SBPA (POA)
Name Salgado Filho
Region Brazil
Timezone America/Sao_Paulo (UTC-2.0)
Plans Departing 379
Arriving 338
Stats Elevation 11 ft / 3 m (AMSL)
Location -29.994428° -51.171426°
Runways 1
Magnetic Variation 16.880° W
Sunrise 2017-12-18 08:20:32 UTC / 2017-12-18 06:20:32 Local
Sunset 2017-12-18 22:24:54 UTC / 2017-12-18 20:24:54 Local
Advertisement - Login to hide

Runways

ID Width Length Bearing (true) Bearing (mag) Surface Threshold Offset Overrun Length
11 138 ft / 42 m 7,487 ft / 2,282 m 91.60° 108.48° Asphalt 0 ft / 0 m 230 ft / 70 m
29 138 ft / 42 m 7,487 ft / 2,282 m 271.59° 288.47° Asphalt 0 ft / 0 m 197 ft / 60 m

Approach Navaids

Runway Type Ident Frequency Range Bearing (true) Bearing (mag) Slope Elevation
11 Localiser IPA 110.30 MHz 18 nm / 33 km 90.92° 107.80° - 11 ft / 3 m (AMSL)
11 Glidescope IPA 110.30 MHz 10 nm / 19 km 91.60° 108.48° 3.00° 11 ft / 3 m (AMSL)

Map

Weather


0- 5 10 15 20 25 30 35+ Temperature / ° C

Clouds and Precipitation
Forecast for 2017-12-18 12:00 UTC. Updated 2 hours ago

Ground ~20,000 ft ~40,000 ft Winds

METAR

SBPA 181000Z 14009KT 110V170 9999 BKN015 OVC035 20/14 Q1020

TAF

Not found

Frequencies

Recorded 127.85 MHz ATIS
Tower 118.10 MHz PALEGRE TWR
Approach 120.10 MHz PALEGRE APP
Approach 128.90 MHz PALEGRE APP
Ground 121.90 MHz GND
Approach 119.00 MHz PALEGRE APP
Approach 120.55 MHz PALEGRE APP
Warning: Do not use this data for real-world aviation or navigation. No guarantee of current accuracy is given.